sensor_id;sensor_type;location;lat;lon;timestamp;pressure;altitude;pressure_sealevel;temperature;humidity
35806;BME280;21925;44.608;11.580;2023-02-13T00:01:51;103810.41;;;5.86;64.20
35806;BME280;21925;44.608;11.580;2023-02-13T00:04:17;103818.56;;;5.86;64.72
35806;BME280;21925;44.608;11.580;2023-02-13T00:06:42;103791.72;;;5.66;64.85
35806;BME280;21925;44.608;11.580;2023-02-13T00:09:08;103779.06;;;5.72;64.57
35806;BME280;21925;44.608;11.580;2023-02-13T00:11:36;103809.25;;;5.70;69.73
35806;BME280;21925;44.608;11.580;2023-02-13T00:14:01;103777.22;;;5.61;73.54
35806;BME280;21925;44.608;11.580;2023-02-13T00:16:27;103785.91;;;5.74;69.39
35806;BME280;21925;44.608;11.580;2023-02-13T00:18:52;103808.91;;;5.78;67.06
35806;BME280;21925;44.608;11.580;2023-02-13T00:21:18;103827.72;;;5.68;66.33
35806;BME280;21925;44.608;11.580;2023-02-13T00:23:44;103809.03;;;5.60;66.01
35806;BME280;21925;44.608;11.580;2023-02-13T00:26:13;103807.41;;;5.48;67.38
35806;BME280;21925;44.608;11.580;2023-02-13T00:28:43;103816.53;;;5.31;67.99
35806;BME280;21925;44.608;11.580;2023-02-13T00:31:11;103815.00;;;4.77;72.06
35806;BME280;21925;44.608;11.580;2023-02-13T00:33:37;103801.75;;;5.04;69.12
35806;BME280;21925;44.608;11.580;2023-02-13T00:36:09;103819.63;;;5.34;67.56
35806;BME280;21925;44.608;11.580;2023-02-13T00:38:36;103830.84;;;5.38;66.76
35806;BME280;21925;44.608;11.580;2023-02-13T00:41:02;103829.19;;;5.37;66.52
35806;BME280;21925;44.608;11.580;2023-02-13T00:43:28;103810.38;;;5.35;66.00
35806;BME280;21925;44.608;11.580;2023-02-13T00:45:55;103817.00;;;5.39;66.09
35806;BME280;21925;44.608;11.580;2023-02-13T00:48:24;103817.94;;;5.33;66.71
35806;BME280;21925;44.608;11.580;2023-02-13T00:50:49;103817.00;;;5.28;65.87
35806;BME280;21925;44.608;11.580;2023-02-13T00:53:17;103834.63;;;5.25;65.82
35806;BME280;21925;44.608;11.580;2023-02-13T00:55:45;103831.56;;;5.22;66.04
35806;BME280;21925;44.608;11.580;2023-02-13T00:58:10;103829.91;;;5.21;65.75
35806;BME280;21925;44.608;11.580;2023-02-13T01:00:37;103829.56;;;5.17;65.68
35806;BME280;21925;44.608;11.580;2023-02-13T01:03:04;103837.94;;;4.93;69.20
35806;BME280;21925;44.608;11.580;2023-02-13T01:05:29;103827.78;;;4.88;68.39
35806;BME280;21925;44.608;11.580;2023-02-13T01:07:55;103825.88;;;4.89;70.10
35806;BME280;21925;44.608;11.580;2023-02-13T01:10:21;103818.53;;;5.01;67.52
35806;BME280;21925;44.608;11.580;2023-02-13T01:12:47;103831.69;;;5.04;66.82
35806;BME280;21925;44.608;11.580;2023-02-13T01:15:12;103831.31;;;5.00;66.49
35806;BME280;21925;44.608;11.580;2023-02-13T01:17:38;103832.63;;;4.98;66.60
35806;BME280;21925;44.608;11.580;2023-02-13T01:20:09;103829.66;;;4.88;66.24
35806;BME280;21925;44.608;11.580;2023-02-13T01:22:35;103834.41;;;4.92;67.62
35806;BME280;21925;44.608;11.580;2023-02-13T01:25:01;103818.41;;;4.73;71.63
35806;BME280;21925;44.608;11.580;2023-02-13T01:27:29;103836.41;;;4.97;71.22
35806;BME280;21925;44.608;11.580;2023-02-13T01:29:55;103830.50;;;4.88;71.40
35806;BME280;21925;44.608;11.580;2023-02-13T01:32:21;103824.56;;;4.69;74.44
35806;BME280;21925;44.608;11.580;2023-02-13T01:34:47;103823.06;;;4.32;76.76
35806;BME280;21925;44.608;11.580;2023-02-13T01:37:13;103838.47;;;4.61;72.45
35806;BME280;21925;44.608;11.580;2023-02-13T01:39:39;103840.56;;;4.47;71.43
35806;BME280;21925;44.608;11.580;2023-02-13T01:42:11;103832.63;;;4.05;82.83
35806;BME280;21925;44.608;11.580;2023-02-13T01:44:58;103823.53;;;4.40;77.09
35806;BME280;21925;44.608;11.580;2023-02-13T01:48:03;103816.13;;;4.59;72.38
35806;BME280;21925;44.608;11.580;2023-02-13T01:50:39;103812.38;;;4.71;69.52
35806;BME280;21925;44.608;11.580;2023-02-13T01:53:15;103826.56;;;4.73;68.40
35806;BME280;21925;44.608;11.580;2023-02-13T01:55:46;103834.72;;;4.73;67.96
35806;BME280;21925;44.608;11.580;2023-02-13T01:58:19;103833.34;;;4.41;73.08
35806;BME280;21925;44.608;11.580;2023-02-13T02:00:45;103820.66;;;3.94;84.17
35806;BME280;21925;44.608;11.580;2023-02-13T02:03:23;103805.56;;;4.28;87.45
35806;BME280;21925;44.608;11.580;2023-02-13T02:05:56;103804.53;;;4.52;75.38
35806;BME280;21925;44.608;11.580;2023-02-13T02:08:23;103811.91;;;4.74;71.23
35806;BME280;21925;44.608;11.580;2023-02-13T02:10:53;103795.22;;;4.48;69.28
35806;BME280;21925;44.608;11.580;2023-02-13T02:13:20;103819.09;;;4.16;72.62
35806;BME280;21925;44.608;11.580;2023-02-13T02:15:47;103839.78;;;3.99;78.49
35806;BME280;21925;44.608;11.580;2023-02-13T02:23:38;103822.56;;;4.05;80.82
35806;BME280;21925;44.608;11.580;2023-02-13T02:34:55;103793.72;;;3.46;89.15
35806;BME280;21925;44.608;11.580;2023-02-13T02:40:10;103809.06;;;3.88;80.15
35806;BME280;21925;44.608;11.580;2023-02-13T02:42:56;103802.22;;;4.26;73.75
35806;BME280;21925;44.608;11.580;2023-02-13T02:45:33;103815.13;;;4.30;71.74
35806;BME280;21925;44.608;11.580;2023-02-13T02:48:08;103813.09;;;4.26;70.16
35806;BME280;21925;44.608;11.580;2023-02-13T02:51:13;103809.56;;;3.96;70.09
35806;BME280;21925;44.608;11.580;2023-02-13T02:56:23;103799.72;;;3.66;82.15
35806;BME280;21925;44.608;11.580;2023-02-13T02:58:54;103809.16;;;4.10;74.87
35806;BME280;21925;44.608;11.580;2023-02-13T03:01:40;103777.84;;;4.08;71.35
35806;BME280;21925;44.608;11.580;2023-02-13T03:04:32;103811.28;;;4.08;73.16
35806;BME280;21925;44.608;11.580;2023-02-13T03:07:20;103823.22;;;3.90;82.34
35806;BME280;21925;44.608;11.580;2023-02-13T03:09:48;103802.31;;;3.61;87.65
35806;BME280;21925;44.608;11.580;2023-02-13T03:13:05;103807.59;;;3.38;88.61
35806;BME280;21925;44.608;11.580;2023-02-13T03:15:47;103803.72;;;3.45;82.62
35806;BME280;21925;44.608;11.580;2023-02-13T03:18:36;103819.31;;;3.32;85.61
35806;BME280;21925;44.608;11.580;2023-02-13T03:27:14;103817.44;;;2.66;96.56
35806;BME280;21925;44.608;11.580;2023-02-13T03:30:15;103827.13;;;3.04;97.70
35806;BME280;21925;44.608;11.580;2023-02-13T03:41:28;103840.41;;;2.63;98.06
35806;BME280;21925;44.608;11.580;2023-02-13T03:44:14;103836.56;;;2.46;97.08
35806;BME280;21925;44.608;11.580;2023-02-13T03:46:45;103824.16;;;2.63;95.96
35806;BME280;21925;44.608;11.580;2023-02-13T03:49:18;103823.06;;;3.13;90.79
35806;BME280;21925;44.608;11.580;2023-02-13T03:52:08;103832.69;;;3.09;91.34
35806;BME280;21925;44.608;11.580;2023-02-13T03:55:17;103827.72;;;2.82;96.25
35806;BME280;21925;44.608;11.580;2023-02-13T03:58:06;103817.25;;;2.36;98.21
35806;BME280;21925;44.608;11.580;2023-02-13T04:00:53;103846.97;;;2.49;98.36
35806;BME280;21925;44.608;11.580;2023-02-13T04:06:12;103834.69;;;2.96;92.38
35806;BME280;21925;44.608;11.580;2023-02-13T04:08:38;103829.84;;;2.25;95.28
35806;BME280;21925;44.608;11.580;2023-02-13T04:11:17;103846.00;;;2.37;100.00
35806;BME280;21925;44.608;11.580;2023-02-13T04:13:59;103842.25;;;2.38;100.00
35806;BME280;21925;44.608;11.580;2023-02-13T04:16:45;103834.97;;;2.63;100.00
35806;BME280;21925;44.608;11.580;2023-02-13T04:19:12;103825.69;;;2.77;100.00
35806;BME280;21925;44.608;11.580;2023-02-13T04:21:39;103844.19;;;2.87;100.00
35806;BME280;21925;44.608;11.580;2023-02-13T04:24:06;103855.94;;;3.23;96.90
35806;BME280;21925;44.608;11.580;2023-02-13T04:26:35;103862.59;;;3.03;95.95
35806;BME280;21925;44.608;11.580;2023-02-13T04:29:01;103833.59;;;2.54;95.92
35806;BME280;21925;44.608;11.580;2023-02-13T04:31:27;103831.31;;;2.51;96.87
35806;BME280;21925;44.608;11.580;2023-02-13T04:33:52;103848.44;;;3.01;93.42
35806;BME280;21925;44.608;11.580;2023-02-13T04:36:18;103838.53;;;3.30;85.63
35806;BME280;21925;44.608;11.580;2023-02-13T04:38:43;103841.50;;;3.47;80.01
35806;BME280;21925;44.608;11.580;2023-02-13T04:41:10;103862.44;;;3.58;77.07
35806;BME280;21925;44.608;11.580;2023-02-13T04:43:36;103866.94;;;3.28;84.73
35806;BME280;21925;44.608;11.580;2023-02-13T04:46:01;103847.75;;;2.81;93.06
35806;BME280;21925;44.608;11.580;2023-02-13T04:48:27;103841.44;;;2.62;97.25
35806;BME280;21925;44.608;11.580;2023-02-13T04:50:53;103840.66;;;2.80;99.50
35806;BME280;21925;44.608;11.580;2023-02-13T04:53:18;103847.66;;;2.94;100.00
35806;BME280;21925;44.608;11.580;2023-02-13T04:55:44;103858.19;;;2.77;100.00
35806;BME280;21925;44.608;11.580;2023-02-13T04:58:10;103848.25;;;2.71;100.00
35806;BME280;21925;44.608;11.580;2023-02-13T05:00:35;103843.91;;;2.95;96.45
35806;BME280;21925;44.608;11.580;2023-02-13T05:03:11;103843.63;;;3.20;91.73
35806;BME280;21925;44.608;11.580;2023-02-13T05:05:37;103861.19;;;3.18;87.37
35806;BME280;21925;44.608;11.580;2023-02-13T05:08:04;103858.13;;;3.08;90.15
35806;BME280;21925;44.608;11.580;2023-02-13T05:10:30;103860.94;;;2.71;95.14
35806;BME280;21925;44.608;11.580;2023-02-13T05:12:55;103847.88;;;2.00;97.03
35806;BME280;21925;44.608;11.580;2023-02-13T05:15:21;103860.38;;;2.01;100.00
35806;BME280;21925;44.608;11.580;2023-02-13T05:17:48;103843.25;;;2.07;100.00
35806;BME280;21925;44.608;11.580;2023-02-13T05:20:14;103847.63;;;2.45;100.00
35806;BME280;21925;44.608;11.580;2023-02-13T05:22:48;103853.16;;;2.56;98.02
35806;BME280;21925;44.608;11.580;2023-02-13T05:25:34;103865.97;;;2.67;95.93
35806;BME280;21925;44.608;11.580;2023-02-13T05:27:59;103846.28;;;2.23;97.72
35806;BME280;21925;44.608;11.580;2023-02-13T05:30:25;103856.31;;;2.53;97.97
35806;BME280;21925;44.608;11.580;2023-02-13T05:32:51;103854.06;;;2.75;96.33
35806;BME280;21925;44.608;11.580;2023-02-13T05:35:21;103854.59;;;2.83;95.65
35806;BME280;21925;44.608;11.580;2023-02-13T05:37:47;103856.22;;;2.66;95.96
35806;BME280;21925;44.608;11.580;2023-02-13T05:40:13;103854.38;;;2.60;96.87
35806;BME280;21925;44.608;11.580;2023-02-13T05:42:40;103853.81;;;2.76;95.65
35806;BME280;21925;44.608;11.580;2023-02-13T05:45:06;103850.09;;;2.46;96.39
35806;BME280;21925;44.608;11.580;2023-02-13T05:47:33;103819.41;;;2.28;95.53
35806;BME280;21925;44.608;11.580;2023-02-13T05:49:58;103852.72;;;2.29;95.36
35806;BME280;21925;44.608;11.580;2023-02-13T05:52:24;103850.44;;;2.56;93.47
35806;BME280;21925;44.608;11.580;2023-02-13T05:54:49;103834.34;;;2.61;91.25
35806;BME280;21925;44.608;11.580;2023-02-13T05:57:15;103859.75;;;2.91;89.29
35806;BME280;21925;44.608;11.580;2023-02-13T05:59:40;103867.56;;;2.81;90.84
35806;BME280;21925;44.608;11.580;2023-02-13T06:02:06;103853.06;;;2.38;91.53
35806;BME280;21925;44.608;11.580;2023-02-13T06:04:32;103844.28;;;2.12;92.92
35806;BME280;21925;44.608;11.580;2023-02-13T06:06:58;103876.22;;;2.65;90.71
35806;BME280;21925;44.608;11.580;2023-02-13T06:09:23;103860.25;;;2.57;90.30
35806;BME280;21925;44.608;11.580;2023-02-13T06:11:49;103854.88;;;2.51;91.08
35806;BME280;21925;44.608;11.580;2023-02-13T06:14:14;103849.41;;;1.83;91.29
35806;BME280;21925;44.608;11.580;2023-02-13T06:16:40;103868.38;;;2.20;93.42
35806;BME280;21925;44.608;11.580;2023-02-13T06:19:06;103849.19;;;2.28;91.41
35806;BME280;21925;44.608;11.580;2023-02-13T06:21:32;103886.06;;;2.84;88.10
35806;BME280;21925;44.608;11.580;2023-02-13T06:24:06;103871.84;;;2.64;89.43
35806;BME280;21925;44.608;11.580;2023-02-13T06:26:33;103877.00;;;2.41;91.54
35806;BME280;21925;44.608;11.580;2023-02-13T06:28:58;103838.50;;;2.02;91.08
35806;BME280;21925;44.608;11.580;2023-02-13T06:31:24;103866.25;;;2.59;90.35
35806;BME280;21925;44.608;11.580;2023-02-13T06:33:50;103893.88;;;2.74;90.78
35806;BME280;21925;44.608;11.580;2023-02-13T06:36:15;103893.72;;;2.63;91.17
35806;BME280;21925;44.608;11.580;2023-02-13T06:38:41;103880.66;;;2.53;92.17
35806;BME280;21925;44.608;11.580;2023-02-13T06:41:08;103888.00;;;2.77;90.55
35806;BME280;21925;44.608;11.580;2023-02-13T06:43:34;103867.09;;;2.84;89.85
35806;BME280;21925;44.608;11.580;2023-02-13T06:46:04;103863.47;;;2.72;88.12
35806;BME280;21925;44.608;11.580;2023-02-13T06:48:29;103916.50;;;2.55;89.36
35806;BME280;21925;44.608;11.580;2023-02-13T06:50:55;103893.19;;;2.79;89.03
35806;BME280;21925;44.608;11.580;2023-02-13T06:53:21;103894.94;;;2.73;89.47
35806;BME280;21925;44.608;11.580;2023-02-13T06:55:52;103905.06;;;2.53;91.34
35806;BME280;21925;44.608;11.580;2023-02-13T06:58:22;103906.88;;;2.59;91.71
35806;BME280;21925;44.608;11.580;2023-02-13T07:00:50;103913.41;;;2.83;91.74
35806;BME280;21925;44.608;11.580;2023-02-13T07:03:15;103916.28;;;2.88;91.91
35806;BME280;21925;44.608;11.580;2023-02-13T07:05:42;103891.84;;;2.70;91.76
35806;BME280;21925;44.608;11.580;2023-02-13T07:08:10;103926.34;;;2.81;92.22
35806;BME280;21925;44.608;11.580;2023-02-13T07:10:37;103919.66;;;3.08;92.80
35806;BME280;21925;44.608;11.580;2023-02-13T07:13:03;103921.78;;;3.30;90.62
35806;BME280;21925;44.608;11.580;2023-02-13T07:15:29;103916.91;;;3.14;89.42
35806;BME280;21925;44.608;11.580;2023-02-13T07:17:56;103946.28;;;3.41;90.09
35806;BME280;21925;44.608;11.580;2023-02-13T07:20:23;103912.91;;;2.92;91.26
35806;BME280;21925;44.608;11.580;2023-02-13T07:22:48;103879.66;;;2.79;93.96
35806;BME280;21925;44.608;11.580;2023-02-13T07:25:14;103904.28;;;3.26;93.34
35806;BME280;21925;44.608;11.580;2023-02-13T07:27:39;103937.47;;;3.46;93.74
35806;BME280;21925;44.608;11.580;2023-02-13T07:30:05;103923.38;;;3.13;95.74
35806;BME280;21925;44.608;11.580;2023-02-13T07:32:31;103930.34;;;3.27;97.58
35806;BME280;21925;44.608;11.580;2023-02-13T07:34:56;103915.22;;;3.37;99.89
35806;BME280;21925;44.608;11.580;2023-02-13T07:37:22;103920.09;;;3.71;98.85
35806;BME280;21925;44.608;11.580;2023-02-13T07:39:47;103924.53;;;3.66;99.55
35806;BME280;21925;44.608;11.580;2023-02-13T07:42:13;103945.50;;;3.77;99.78
35806;BME280;21925;44.608;11.580;2023-02-13T07:44:39;103941.28;;;3.63;100.00
35806;BME280;21925;44.608;11.580;2023-02-13T07:47:05;103935.78;;;3.87;100.00
35806;BME280;21925;44.608;11.580;2023-02-13T07:49:31;103935.09;;;4.27;100.00
35806;BME280;21925;44.608;11.580;2023-02-13T07:51:56;103924.38;;;4.32;100.00
35806;BME280;21925;44.608;11.580;2023-02-13T07:54:23;103937.28;;;4.66;100.00
35806;BME280;21925;44.608;11.580;2023-02-13T07:56:48;103918.94;;;4.62;98.71
35806;BME280;21925;44.608;11.580;2023-02-13T07:59:14;103946.09;;;4.79;98.36
35806;BME280;21925;44.608;11.580;2023-02-13T08:01:40;103941.50;;;4.91;97.89
35806;BME280;21925;44.608;11.580;2023-02-13T08:04:06;103943.22;;;5.27;96.47
35806;BME280;21925;44.608;11.580;2023-02-13T08:06:31;103940.28;;;5.51;94.98
35806;BME280;21925;44.608;11.580;2023-02-13T08:08:57;103940.88;;;5.64;92.33
35806;BME280;21925;44.608;11.580;2023-02-13T08:11:45;103939.94;;;5.93;90.67
35806;BME280;21925;44.608;11.580;2023-02-13T08:14:23;103919.19;;;6.04;89.43
35806;BME280;21925;44.608;11.580;2023-02-13T08:16:50;103922.66;;;6.55;87.49
35806;BME280;21925;44.608;11.580;2023-02-13T08:19:16;103942.06;;;6.70;85.86
35806;BME280;21925;44.608;11.580;2023-02-13T08:21:41;103932.41;;;6.51;85.37
35806;BME280;21925;44.608;11.580;2023-02-13T08:24:08;103938.56;;;6.86;84.54
35806;BME280;21925;44.608;11.580;2023-02-13T08:26:34;103933.34;;;7.01;85.01
35806;BME280;21925;44.608;11.580;2023-02-13T08:29:00;103938.63;;;6.91;83.87
35806;BME280;21925;44.608;11.580;2023-02-13T08:31:26;103945.81;;;6.97;82.82
35806;BME280;21925;44.608;11.580;2023-02-13T08:33:51;103937.91;;;7.11;82.20
35806;BME280;21925;44.608;11.580;2023-02-13T08:36:17;103939.78;;;6.95;82.14
35806;BME280;21925;44.608;11.580;2023-02-13T08:38:46;103916.75;;;7.18;81.34
35806;BME280;21925;44.608;11.580;2023-02-13T08:41:12;103925.47;;;7.53;80.61
35806;BME280;21925;44.608;11.580;2023-02-13T08:43:38;103937.34;;;7.80;79.85
35806;BME280;21925;44.608;11.580;2023-02-13T08:46:03;103931.28;;;7.94;78.74
35806;BME280;21925;44.608;11.580;2023-02-13T08:48:29;103933.63;;;7.86;78.80
35806;BME280;21925;44.608;11.580;2023-02-13T08:50:54;103935.69;;;7.79;78.00
35806;BME280;21925;44.608;11.580;2023-02-13T08:53:20;103935.00;;;7.67;77.56
35806;BME280;21925;44.608;11.580;2023-02-13T08:55:56;103924.81;;;8.00;77.43
35806;BME280;21925;44.608;11.580;2023-02-13T08:58:22;103925.28;;;8.35;78.17
35806;BME280;21925;44.608;11.580;2023-02-13T09:00:48;103935.41;;;8.61;76.77
35806;BME280;21925;44.608;11.580;2023-02-13T09:03:15;103930.81;;;8.67;75.41
35806;BME280;21925;44.608;11.580;2023-02-13T09:05:41;103920.41;;;8.64;76.01
35806;BME280;21925;44.608;11.580;2023-02-13T09:08:06;103921.56;;;8.72;74.44
35806;BME280;21925;44.608;11.580;2023-02-13T09:10:33;103922.56;;;8.88;73.76
35806;BME280;21925;44.608;11.580;2023-02-13T09:12:59;103944.25;;;8.94;74.14
35806;BME280;21925;44.608;11.580;2023-02-13T09:15:25;103938.81;;;9.67;71.84
35806;BME280;21925;44.608;11.580;2023-02-13T09:17:51;103936.66;;;9.33;71.28
35806;BME280;21925;44.608;11.580;2023-02-13T09:20:17;103932.13;;;9.17;71.85
35806;BME280;21925;44.608;11.580;2023-02-13T09:22:43;103942.72;;;9.08;72.58
35806;BME280;21925;44.608;11.580;2023-02-13T09:25:09;103935.31;;;9.35;71.35
35806;BME280;21925;44.608;11.580;2023-02-13T09:27:35;103932.69;;;9.55;70.84
35806;BME280;21925;44.608;11.580;2023-02-13T09:30:01;103930.69;;;9.77;70.12
35806;BME280;21925;44.608;11.580;2023-02-13T09:32:27;103921.34;;;9.78;69.50
35806;BME280;21925;44.608;11.580;2023-02-13T09:34:53;103923.25;;;10.24;69.76
35806;BME280;21925;44.608;11.580;2023-02-13T09:37:18;103943.56;;;10.23;69.22
35806;BME280;21925;44.608;11.580;2023-02-13T09:39:44;103926.38;;;10.52;68.10
35806;BME280;21925;44.608;11.580;2023-02-13T09:42:21;103939.22;;;10.36;66.99
35806;BME280;21925;44.608;11.580;2023-02-13T09:44:50;103929.47;;;10.80;65.79
35806;BME280;21925;44.608;11.580;2023-02-13T09:47:31;103939.81;;;10.58;65.48
35806;BME280;21925;44.608;11.580;2023-02-13T09:50:02;103911.63;;;10.88;65.62
35806;BME280;21925;44.608;11.580;2023-02-13T09:52:32;103939.94;;;11.13;65.05
35806;BME280;21925;44.608;11.580;2023-02-13T09:55:05;103928.13;;;11.32;65.59
35806;BME280;21925;44.608;11.580;2023-02-13T09:58:08;103942.41;;;11.29;64.94
35806;BME280;21925;44.608;11.580;2023-02-13T10:00:46;103932.47;;;11.88;63.86
35806;BME280;21925;44.608;11.580;2023-02-13T10:03:29;103956.22;;;12.32;62.02
35806;BME280;21925;44.608;11.580;2023-02-13T10:11:36;103944.91;;;12.44;61.95
35806;BME280;21925;44.608;11.580;2023-02-13T10:14:18;103945.41;;;12.51;61.76
35806;BME280;21925;44.608;11.580;2023-02-13T10:22:03;103924.63;;;13.16;60.38
35806;BME280;21925;44.608;11.580;2023-02-13T10:24:38;103935.28;;;13.28;59.49
35806;BME280;21925;44.608;11.580;2023-02-13T10:27:28;103935.84;;;13.53;58.71
35806;BME280;21925;44.608;11.580;2023-02-13T10:29:59;103912.06;;;13.62;57.78
35806;BME280;21925;44.608;11.580;2023-02-13T10:32:42;103934.78;;;13.21;58.24
35806;BME280;21925;44.608;11.580;2023-02-13T10:35:30;103917.47;;;14.79;61.32
35806;BME280;21925;44.608;11.580;2023-02-13T10:37:58;103917.41;;;14.47;56.83
35806;BME280;21925;44.608;11.580;2023-02-13T10:40:31;103910.94;;;14.56;59.36
35806;BME280;21925;44.608;11.580;2023-02-13T10:43:10;103908.94;;;14.20;58.03
35806;BME280;21925;44.608;11.580;2023-02-13T10:45:58;103920.44;;;13.80;58.06
35806;BME280;21925;44.608;11.580;2023-02-13T10:48:50;103917.38;;;14.05;57.55
35806;BME280;21925;44.608;11.580;2023-02-13T10:51:48;103908.66;;;14.58;58.68
35806;BME280;21925;44.608;11.580;2023-02-13T11:00:28;103894.31;;;14.38;57.04
35806;BME280;21925;44.608;11.580;2023-02-13T11:02:58;103876.50;;;14.07;57.07
35806;BME280;21925;44.608;11.580;2023-02-13T11:05:30;103876.44;;;14.54;57.11
35806;BME280;21925;44.608;11.580;2023-02-13T11:07:56;103881.94;;;14.91;56.66
35806;BME280;21925;44.608;11.580;2023-02-13T11:10:28;103880.00;;;15.23;56.76
35806;BME280;21925;44.608;11.580;2023-02-13T11:13:21;103888.50;;;14.95;55.87
35806;BME280;21925;44.608;11.580;2023-02-13T11:16:08;103875.06;;;15.38;56.16
35806;BME280;21925;44.608;11.580;2023-02-13T11:18:42;103868.81;;;15.46;55.58
35806;BME280;21925;44.608;11.580;2023-02-13T11:21:19;103854.91;;;15.38;55.63
35806;BME280;21925;44.608;11.580;2023-02-13T11:23:50;103868.94;;;15.23;54.80
35806;BME280;21925;44.608;11.580;2023-02-13T11:26:30;103861.63;;;15.32;54.41
35806;BME280;21925;44.608;11.580;2023-02-13T11:28:59;103858.34;;;15.43;54.72
35806;BME280;21925;44.608;11.580;2023-02-13T11:33:52;103864.50;;;15.09;55.46
35806;BME280;21925;44.608;11.580;2023-02-13T11:36:30;103859.00;;;16.21;53.27
35806;BME280;21925;44.608;11.580;2023-02-13T11:39:18;103841.59;;;16.56;56.84
35806;BME280;21925;44.608;11.580;2023-02-13T11:41:45;103848.81;;;16.43;54.52
35806;BME280;21925;44.608;11.580;2023-02-13T11:44:30;103838.56;;;16.66;53.20
35806;BME280;21925;44.608;11.580;2023-02-13T11:46:58;103833.59;;;15.92;53.55
35806;BME280;21925;44.608;11.580;2023-02-13T11:49:29;103838.91;;;16.29;54.48
35806;BME280;21925;44.608;11.580;2023-02-13T11:52:00;103821.22;;;16.25;53.38
35806;BME280;21925;44.608;11.580;2023-02-13T11:54:40;103833.16;;;16.39;52.17
35806;BME280;21925;44.608;11.580;2023-02-13T11:57:21;103821.59;;;16.45;52.87
35806;BME280;21925;44.608;11.580;2023-02-13T11:59:49;103827.88;;;16.73;53.48
35806;BME280;21925;44.608;11.580;2023-02-13T12:04:43;103819.84;;;17.15;52.47
35806;BME280;21925;44.608;11.580;2023-02-13T12:07:17;103829.50;;;16.52;52.02
35806;BME280;21925;44.608;11.580;2023-02-13T12:09:45;103812.66;;;17.36;53.46
35806;BME280;21925;44.608;11.580;2023-02-13T12:12:20;103801.41;;;16.88;52.19
35806;BME280;21925;44.608;11.580;2023-02-13T12:14:49;103803.69;;;17.86;53.77
35806;BME280;21925;44.608;11.580;2023-02-13T12:17:18;103803.38;;;17.40;52.43
35806;BME280;21925;44.608;11.580;2023-02-13T12:19:47;103800.91;;;16.43;50.93
35806;BME280;21925;44.608;11.580;2023-02-13T12:25:24;103794.06;;;17.36;51.75
35806;BME280;21925;44.608;11.580;2023-02-13T12:30:51;103791.84;;;17.55;51.50
35806;BME280;21925;44.608;11.580;2023-02-13T12:36:18;103775.44;;;17.28;51.28
35806;BME280;21925;44.608;11.580;2023-02-13T12:39:16;103764.41;;;18.35;54.44
35806;BME280;21925;44.608;11.580;2023-02-13T12:42:09;103770.41;;;18.03;53.54
35806;BME280;21925;44.608;11.580;2023-02-13T12:47:24;103756.59;;;17.64;53.10
35806;BME280;21925;44.608;11.580;2023-02-13T13:12:20;103717.53;;;19.70;54.86
35806;BME280;21925;44.608;11.580;2023-02-13T13:22:47;103692.41;;;19.79;51.71
35806;BME280;21925;44.608;11.580;2023-02-13T13:28:19;103719.72;;;19.27;50.12
35806;BME280;21925;44.608;11.580;2023-02-13T13:30:46;103701.97;;;19.12;50.89
35806;BME280;21925;44.608;11.580;2023-02-13T13:33:17;103708.03;;;20.32;57.50
35806;BME280;21925;44.608;11.580;2023-02-13T13:35:51;103694.06;;;19.22;51.35
35806;BME280;21925;44.608;11.580;2023-02-13T13:41:03;103698.41;;;19.89;57.02
35806;BME280;21925;44.608;11.580;2023-02-13T13:48:49;103708.97;;;18.63;49.92
35806;BME280;21925;44.608;11.580;2023-02-13T13:51:20;103706.00;;;19.51;54.86
35806;BME280;21925;44.608;11.580;2023-02-13T14:05:00;103710.91;;;19.25;50.33
35806;BME280;21925;44.608;11.580;2023-02-13T14:07:34;103708.19;;;18.12;48.64
35806;BME280;21925;44.608;11.580;2023-02-13T14:10:00;103702.94;;;17.85;49.57
35806;BME280;21925;44.608;11.580;2023-02-13T14:14:57;103700.25;;;18.82;49.92
35806;BME280;21925;44.608;11.580;2023-02-13T14:20:26;103684.56;;;19.52;49.99
35806;BME280;21925;44.608;11.580;2023-02-13T14:22:53;103698.50;;;19.72;52.31
35806;BME280;21925;44.608;11.580;2023-02-13T14:25:28;103698.56;;;19.64;50.19
35806;BME280;21925;44.608;11.580;2023-02-13T14:28:02;103689.03;;;18.61;46.14
35806;BME280;21925;44.608;11.580;2023-02-13T14:30:32;103676.31;;;18.27;47.06
35806;BME280;21925;44.608;11.580;2023-02-13T14:33:01;103691.22;;;18.93;48.63
35806;BME280;21925;44.608;11.580;2023-02-13T14:35:32;103685.25;;;19.20;50.88
35806;BME280;21925;44.608;11.580;2023-02-13T14:38:00;103683.94;;;19.09;47.77
35806;BME280;21925;44.608;11.580;2023-02-13T14:40:47;103673.53;;;18.52;46.58
35806;BME280;21925;44.608;11.580;2023-02-13T14:45:50;103674.66;;;18.42;47.13
35806;BME280;21925;44.608;11.580;2023-02-13T14:48:19;103687.31;;;18.86;50.86
35806;BME280;21925;44.608;11.580;2023-02-13T14:50:49;103686.25;;;19.16;50.77
35806;BME280;21925;44.608;11.580;2023-02-13T14:53:20;103680.75;;;18.36;48.28
35806;BME280;21925;44.608;11.580;2023-02-13T14:55:54;103682.84;;;17.97;48.42
35806;BME280;21925;44.608;11.580;2023-02-13T15:06:11;103679.91;;;18.02;48.18
35806;BME280;21925;44.608;11.580;2023-02-13T15:08:46;103678.78;;;18.28;48.69
35806;BME280;21925;44.608;11.580;2023-02-13T15:11:40;103667.22;;;18.80;50.95
35806;BME280;21925;44.608;11.580;2023-02-13T15:14:30;103663.97;;;18.70;49.25
35806;BME280;21925;44.608;11.580;2023-02-13T15:17:06;103665.50;;;18.50;48.14
35806;BME280;21925;44.608;11.580;2023-02-13T15:19:36;103666.03;;;18.44;48.41
35806;BME280;21925;44.608;11.580;2023-02-13T15:22:03;103666.69;;;18.33;47.88
35806;BME280;21925;44.608;11.580;2023-02-13T15:24:36;103657.53;;;18.07;47.53